createdAt,value
2019-02-25T00:00:46.133Z,2.02
2019-02-25T00:03:12.536Z,2.10
2019-02-25T00:05:38.857Z,2.20
2019-02-25T00:08:05.170Z,2.22
2019-02-25T00:10:31.562Z,2.40
2019-02-25T00:12:57.993Z,2.35
2019-02-25T00:15:24.297Z,1.87
2019-02-25T00:17:50.793Z,1.95
2019-02-25T00:20:17.105Z,2.22
2019-02-25T00:22:43.497Z,2.10
2019-02-25T00:25:12.276Z,2.20
2019-02-25T00:27:38.540Z,1.87
2019-02-25T00:30:08.726Z,1.70
2019-02-25T00:32:35.066Z,1.62
2019-02-25T00:35:01.374Z,2.00
2019-02-25T00:37:27.698Z,1.98
2019-02-25T00:39:54.286Z,2.02
2019-02-25T00:42:20.586Z,1.77
2019-02-25T00:44:47.142Z,2.08
2019-02-25T00:47:13.533Z,1.80
2019-02-25T00:49:40.219Z,2.37
2019-02-25T00:52:06.747Z,1.80
2019-02-25T00:54:33.047Z,2.12
2019-02-25T00:56:59.374Z,2.33
2019-02-25T00:59:25.678Z,2.33
2019-02-25T01:01:52.104Z,1.72
2019-02-25T01:04:18.409Z,1.87
2019-02-25T01:06:44.828Z,2.20
2019-02-25T01:09:11.345Z,2.08
2019-02-25T01:11:37.653Z,1.95
2019-02-25T01:14:04.202Z,2.20
2019-02-25T01:16:30.705Z,1.75
2019-02-25T01:18:57.115Z,1.90
2019-02-25T01:21:23.428Z,1.80
2019-02-25T01:23:49.842Z,1.85
2019-02-25T01:26:16.178Z,1.55
2019-02-25T01:28:42.594Z,1.85
2019-02-25T01:31:08.881Z,1.77
2019-02-25T01:33:35.413Z,1.87
2019-02-25T01:36:01.813Z,1.75
2019-02-25T01:38:28.153Z,2.17
2019-02-25T01:40:54.444Z,2.55
2019-02-25T01:43:20.858Z,2.37
2019-02-25T01:45:47.150Z,1.77
2019-02-25T01:48:13.460Z,2.20
2019-02-25T01:50:39.885Z,1.80
2019-02-25T01:53:06.201Z,2.08
2019-02-25T01:55:32.601Z,1.90
2019-02-25T01:57:59.127Z,2.05
2019-02-25T02:00:25.643Z,2.30
2019-02-25T02:02:52.065Z,2.10
2019-02-25T02:05:18.584Z,2.45
2019-02-25T02:07:44.988Z,1.67
2019-02-25T02:10:14.008Z,2.15
2019-02-25T02:12:40.308Z,1.42
2019-02-25T02:15:12.843Z,2.00
2019-02-25T02:17:39.250Z,2.00
2019-02-25T02:20:08.804Z,2.10
2019-02-25T02:22:35.157Z,1.90
2019-02-25T02:25:01.574Z,1.82
2019-02-25T02:27:27.899Z,2.20
2019-02-25T02:29:54.194Z,1.90
2019-02-25T02:32:20.493Z,1.70
2019-02-25T02:34:46.890Z,2.02
2019-02-25T02:37:13.186Z,1.92
2019-02-25T02:39:39.822Z,1.87
2019-02-25T02:42:14.340Z,1.92
2019-02-25T02:44:42.763Z,2.20
2019-02-25T02:47:39.863Z,1.87
2019-02-25T02:50:15.854Z,2.40
2019-02-25T02:52:42.162Z,1.80
2019-02-25T02:55:08.784Z,1.70
2019-02-25T02:57:35.106Z,2.10
2019-02-25T03:00:01.516Z,1.98
2019-02-25T03:02:27.906Z,1.60
2019-02-25T03:04:54.240Z,1.82
2019-02-25T03:07:20.530Z,1.70
2019-02-25T03:09:46.961Z,1.60
2019-02-25T03:12:13.273Z,2.02
2019-02-25T03:14:39.784Z,1.75
2019-02-25T03:17:06.103Z,1.72
2019-02-25T03:19:32.726Z,1.67
2019-02-25T03:21:59.148Z,1.50
2019-02-25T03:24:25.561Z,1.75
2019-02-25T03:26:52.053Z,1.80
2019-02-25T03:29:18.365Z,1.90
2019-02-25T03:31:44.782Z,1.80
2019-02-25T03:34:11.429Z,2.00
2019-02-25T03:36:37.825Z,1.80
2019-02-25T03:39:06.126Z,1.75
2019-02-25T03:41:32.567Z,1.50
2019-02-25T03:43:58.985Z,1.70
2019-02-25T03:46:25.525Z,2.15
2019-02-25T03:48:52.209Z,1.75
2019-02-25T03:51:18.711Z,1.72
2019-02-25T03:53:45.129Z,1.70
2019-02-25T03:56:11.421Z,1.55
2019-02-25T03:58:37.945Z,1.62
2019-02-25T04:01:04.362Z,2.05
2019-02-25T04:03:30.650Z,1.82
2019-02-25T04:05:57.069Z,1.67
2019-02-25T04:08:23.758Z,1.70
2019-02-25T04:10:50.061Z,1.90
2019-02-25T04:13:16.361Z,1.70
2019-02-25T04:15:43.862Z,2.30
2019-02-25T04:18:10.174Z,3.62
2019-02-25T04:20:36.583Z,2.47
2019-02-25T04:23:03.483Z,3.27
2019-02-25T04:25:30.395Z,3.75
2019-02-25T04:28:02.631Z,3.22
2019-02-25T04:30:28.960Z,3.15
2019-02-25T04:32:56.754Z,2.95
2019-02-25T04:35:23.011Z,3.55
2019-02-25T04:37:49.526Z,3.33
2019-02-25T04:40:15.970Z,3.77
2019-02-25T04:42:42.274Z,3.02
2019-02-25T04:45:11.098Z,2.70
2019-02-25T04:47:37.523Z,2.50
2019-02-25T04:50:06.414Z,1.92
2019-02-25T04:52:32.842Z,2.90
2019-02-25T04:54:59.528Z,2.98
2019-02-25T04:57:25.784Z,2.60
2019-02-25T04:59:52.211Z,2.30
2019-02-25T05:02:18.619Z,2.20
2019-02-25T05:04:45.038Z,2.20
2019-02-25T05:07:11.329Z,1.98
2019-02-25T05:09:37.865Z,2.33
2019-02-25T05:12:04.270Z,2.15
2019-02-25T05:14:30.616Z,1.98
2019-02-25T05:16:57.018Z,2.15
2019-02-25T05:19:24.366Z,2.10
2019-02-25T05:21:50.736Z,2.10
2019-02-25T05:24:17.135Z,1.95
2019-02-25T05:26:43.831Z,2.58
2019-02-25T05:29:10.497Z,2.20
2019-02-25T05:31:37.021Z,1.92
2019-02-25T05:34:03.527Z,2.27
2019-02-25T05:36:29.855Z,1.82
2019-02-25T05:38:58.586Z,1.60
2019-02-25T05:41:24.890Z,2.08
2019-02-25T05:43:51.200Z,2.10
2019-02-25T05:46:17.494Z,1.90
2019-02-25T05:48:43.795Z,2.10
2019-02-25T05:51:10.227Z,1.90
2019-02-25T05:53:36.731Z,1.87
2019-02-25T05:56:03.168Z,2.27
2019-02-25T05:58:29.869Z,1.87
2019-02-25T06:00:56.387Z,1.62
2019-02-25T06:03:22.771Z,1.72
2019-02-25T06:05:49.179Z,1.85
2019-02-25T06:08:15.832Z,1.90
2019-02-25T06:10:42.349Z,1.70
2019-02-25T06:13:08.743Z,2.10
2019-02-25T06:15:35.316Z,2.15
2019-02-25T06:18:01.605Z,2.00
2019-02-25T06:20:27.925Z,2.17
2019-02-25T06:22:54.218Z,2.10
2019-02-25T06:25:20.625Z,2.10
2019-02-25T06:27:47.421Z,2.55
2019-02-25T06:30:20.598Z,2.17
2019-02-25T06:32:46.923Z,2.33
2019-02-25T06:35:13.326Z,2.40
2019-02-25T06:37:39.723Z,2.58
2019-02-25T06:40:09.866Z,2.30
2019-02-25T06:42:36.182Z,2.83
2019-02-25T06:45:05.321Z,3.30
2019-02-25T06:47:31.828Z,3.75
2019-02-25T06:49:58.141Z,3.42
2019-02-25T06:52:24.459Z,3.83
2019-02-25T06:54:50.890Z,3.60
2019-02-25T06:57:17.413Z,3.42
2019-02-25T06:59:43.721Z,3.00
2019-02-25T07:02:10.236Z,3.30
2019-02-25T07:04:38.449Z,3.50
2019-02-25T07:07:06.647Z,3.80
2019-02-25T07:09:49.860Z,4.10
2019-02-25T07:12:18.070Z,3.92
2019-02-25T07:14:47.486Z,3.30
2019-02-25T07:17:22.762Z,3.95
2019-02-25T07:19:51.765Z,4.67
2019-02-25T07:22:26.039Z,4.20
2019-02-25T07:25:03.455Z,4.15
2019-02-25T07:27:31.771Z,3.98
2019-02-25T07:30:11.897Z,3.33
2019-02-25T07:32:40.149Z,4.08
2019-02-25T07:35:08.527Z,4.10
2019-02-25T07:37:36.750Z,3.67
2019-02-25T07:40:23.309Z,3.60
2019-02-25T07:42:51.537Z,3.10
2019-02-25T07:45:22.862Z,3.15
2019-02-25T07:47:53.801Z,3.30
2019-02-25T07:50:46.914Z,3.58
2019-02-25T07:53:26.594Z,3.40
2019-02-25T07:56:11.245Z,2.90
2019-02-25T07:58:42.163Z,2.67
2019-02-25T08:01:26.845Z,2.72
2019-02-25T08:04:06.971Z,2.50
2019-02-25T08:06:35.172Z,3.60
2019-02-25T08:09:12.254Z,3.22
2019-02-25T08:11:55.834Z,3.20
2019-02-25T08:14:40.490Z,2.83
2019-02-25T08:17:14.601Z,2.10
2019-02-25T08:19:49.003Z,2.40
2019-02-25T08:22:19.929Z,1.77
2019-02-25T08:25:04.649Z,2.65
2019-02-25T08:27:41.917Z,2.37
2019-02-25T08:30:30.206Z,2.10
2019-02-25T08:32:58.511Z,1.80
2019-02-25T08:35:57.070Z,1.90
2019-02-25T08:38:40.889Z,2.00
2019-02-25T08:41:10.908Z,1.77
2019-02-25T08:43:39.127Z,1.80
2019-02-25T08:46:13.088Z,1.60
2019-02-25T08:48:41.291Z,1.72
2019-02-25T08:51:07.597Z,1.60
2019-02-25T08:53:34.009Z,1.30
2019-02-25T08:56:00.326Z,1.90
2019-02-25T08:58:26.662Z,1.47
2019-02-25T09:00:53.065Z,1.32
2019-02-25T09:03:19.464Z,1.30
2019-02-25T09:05:46.221Z,1.55
2019-02-25T09:08:12.742Z,1.40
2019-02-25T09:10:39.097Z,1.05
2019-02-25T09:13:05.604Z,1.12
2019-02-25T09:15:32.573Z,1.15
2019-02-25T09:17:58.733Z,1.22
2019-02-25T09:20:25.037Z,0.93
2019-02-25T09:22:51.472Z,0.90
2019-02-25T09:25:17.769Z,1.10
2019-02-25T09:27:44.076Z,1.10
2019-02-25T09:30:15.760Z,1.35
2019-02-25T09:32:42.568Z,1.00
2019-02-25T09:35:08.985Z,1.32
2019-02-25T09:37:37.271Z,1.05
2019-02-25T09:40:10.046Z,1.30
2019-02-25T09:42:36.466Z,9.50
2019-02-25T09:45:05.975Z,13.32
2019-02-25T09:47:32.399Z,16.05
2019-02-25T09:49:58.701Z,14.30
2019-02-25T09:52:24.991Z,14.47
2019-02-25T09:54:51.526Z,12.37
2019-02-25T09:57:18.123Z,10.28
2019-02-25T09:59:44.554Z,10.50
2019-02-25T10:02:11.070Z,9.43
2019-02-25T10:04:37.474Z,8.43
2019-02-25T10:07:03.891Z,7.20
2019-02-25T10:09:32.418Z,6.22
2019-02-25T10:11:58.532Z,6.10
2019-02-25T10:14:25.059Z,5.37
2019-02-25T10:16:51.465Z,4.62
2019-02-25T10:19:17.817Z,4.35
2019-02-25T10:21:44.325Z,3.75
2019-02-25T10:24:10.663Z,3.22
2019-02-25T10:26:37.060Z,3.12
2019-02-25T10:29:03.410Z,2.70
2019-02-25T10:31:37.553Z,2.72
2019-02-25T10:34:03.514Z,2.35
2019-02-25T10:36:40.376Z,2.42
2019-02-25T10:39:12.913Z,2.27
2019-02-25T10:41:39.478Z,2.40
2019-02-25T10:44:06.541Z,2.25
2019-02-25T10:46:33.993Z,1.85
2019-02-25T10:49:10.894Z,1.95
2019-02-25T10:51:28.833Z,1.98
2019-02-25T10:53:55.357Z,2.27
2019-02-25T10:56:25.966Z,2.00
2019-02-25T10:58:52.521Z,1.95
2019-02-25T11:01:19.974Z,1.85
2019-02-25T11:03:49.986Z,2.00
2019-02-25T11:06:17.160Z,2.08
2019-02-25T11:08:45.794Z,2.30
2019-02-25T11:11:18.840Z,1.77
2019-02-25T11:13:45.345Z,2.27
2019-02-25T11:16:12.305Z,2.62
2019-02-25T11:18:40.647Z,2.25
2019-02-25T11:21:08.858Z,2.50
2019-02-25T11:23:35.700Z,2.80
2019-02-25T11:26:02.686Z,2.87
2019-02-25T11:28:32.263Z,2.42
2019-02-25T11:30:59.997Z,2.22
2019-02-25T11:33:27.896Z,2.90
2019-02-25T11:35:54.731Z,2.98
2019-02-25T11:38:21.029Z,3.45
2019-02-25T11:40:47.325Z,3.40
2019-02-25T11:43:16.049Z,3.22
2019-02-25T11:45:41.746Z,3.60
2019-02-25T11:48:08.357Z,3.37
2019-02-25T11:50:34.663Z,4.40
2019-02-25T11:53:00.990Z,4.58
2019-02-25T11:55:27.413Z,4.00
2019-02-25T11:57:53.742Z,3.75
2019-02-25T12:00:28.096Z,3.40
2019-02-25T12:02:54.385Z,3.65
2019-02-25T12:05:22.606Z,3.12
2019-02-25T12:07:49.000Z,3.50
2019-02-25T12:10:16.750Z,3.75
2019-02-25T12:12:43.147Z,3.80
2019-02-25T12:15:16.023Z,3.35
2019-02-25T12:17:43.101Z,3.33
2019-02-25T12:20:10.850Z,2.55
2019-02-25T12:22:37.147Z,2.90
2019-02-25T12:25:10.111Z,3.27
2019-02-25T12:27:36.521Z,3.12
2019-02-25T12:30:07.686Z,2.80
2019-02-25T12:32:34.001Z,2.98
2019-02-25T12:35:00.336Z,3.30
2019-02-25T12:37:26.846Z,3.00
2019-02-25T12:39:54.649Z,3.17
2019-02-25T12:42:21.971Z,2.72
2019-02-25T12:44:49.185Z,3.00
2019-02-25T12:47:15.552Z,2.75
2019-02-25T12:49:42.501Z,2.70
2019-02-25T12:52:08.941Z,2.77
2019-02-25T12:54:35.339Z,2.85
2019-02-25T12:57:01.772Z,3.10
2019-02-25T12:59:28.150Z,2.27
2019-02-25T13:01:54.589Z,2.20
2019-02-25T13:04:21.002Z,2.60
2019-02-25T13:06:47.296Z,2.62
2019-02-25T13:09:13.862Z,2.22
2019-02-25T13:11:40.424Z,2.65
2019-02-25T13:14:06.950Z,1.98
2019-02-25T13:16:33.254Z,2.45
2019-02-25T13:18:59.681Z,2.00
2019-02-25T13:21:26.104Z,2.75
2019-02-25T13:23:52.505Z,2.27
2019-02-25T13:26:18.921Z,2.37
2019-02-25T13:28:45.231Z,2.83
2019-02-25T13:31:11.852Z,2.75
2019-02-25T13:33:38.628Z,2.87
2019-02-25T13:36:08.730Z,3.25
2019-02-25T13:38:35.053Z,2.60
2019-02-25T13:41:01.559Z,2.80
2019-02-25T13:43:27.962Z,3.20
2019-02-25T13:45:54.278Z,2.80
2019-02-25T13:48:20.770Z,3.02
2019-02-25T13:50:47.187Z,3.08
2019-02-25T13:53:13.598Z,2.45
2019-02-25T13:55:40.225Z,2.98
2019-02-25T13:58:06.732Z,2.55
2019-02-25T14:00:32.978Z,2.80
2019-02-25T14:02:59.307Z,2.60
2019-02-25T14:05:25.613Z,2.50
2019-02-25T14:07:51.898Z,2.30
2019-02-25T14:10:18.641Z,2.40
2019-02-25T14:12:45.026Z,2.25
2019-02-25T14:15:23.992Z,2.62
2019-02-25T14:17:50.285Z,2.25
2019-02-25T14:20:24.405Z,2.40
2019-02-25T14:22:50.768Z,2.40
2019-02-25T14:25:28.429Z,2.50
2019-02-25T14:27:54.980Z,2.47
2019-02-25T14:30:27.808Z,2.22
2019-02-25T14:32:54.313Z,2.70
2019-02-25T14:35:28.693Z,2.70
2019-02-25T14:37:57.195Z,2.72
2019-02-25T14:40:26.873Z,2.70
2019-02-25T14:42:54.744Z,2.75
2019-02-25T14:45:24.142Z,2.50
2019-02-25T14:47:55.400Z,2.52
2019-02-25T14:50:19.968Z,2.33
2019-02-25T14:52:47.663Z,2.12
2019-02-25T14:55:13.950Z,2.45
2019-02-25T14:57:41.524Z,2.15
2019-02-25T15:00:17.010Z,2.08
2019-02-25T15:02:44.294Z,2.02
2019-02-25T15:05:13.048Z,1.75
2019-02-25T15:07:39.829Z,1.87
2019-02-25T15:10:10.879Z,1.90
2019-02-25T15:12:37.873Z,1.90
2019-02-25T15:15:14.182Z,1.90
2019-02-25T15:17:42.018Z,2.20
2019-02-25T15:20:16.388Z,1.98
2019-02-25T15:22:42.474Z,2.22
2019-02-25T15:25:13.814Z,2.30
2019-02-25T15:27:40.429Z,2.30
2019-02-25T15:30:22.931Z,2.40
2019-02-25T15:32:55.788Z,1.87
2019-02-25T15:35:18.474Z,1.80
2019-02-25T15:37:46.576Z,2.20
2019-02-25T15:40:17.994Z,1.77
2019-02-25T15:42:43.618Z,2.10
2019-02-25T15:45:16.541Z,2.05
2019-02-25T15:47:44.833Z,2.30
2019-02-25T15:50:12.826Z,2.08
2019-02-25T15:52:40.291Z,1.87
2019-02-25T15:55:15.007Z,2.00
2019-02-25T15:57:40.181Z,2.25
2019-02-25T16:00:11.753Z,2.42
2019-02-25T16:02:38.174Z,2.12
2019-02-25T16:05:08.325Z,2.42
2019-02-25T16:07:37.731Z,2.27
2019-02-25T16:10:16.320Z,2.62
2019-02-25T16:12:42.998Z,2.37
2019-02-25T16:15:17.420Z,2.50
2019-02-25T16:17:45.223Z,2.60
2019-02-25T16:20:17.541Z,2.58
2019-02-25T16:22:43.543Z,2.60
2019-02-25T16:25:17.958Z,2.65
2019-02-25T16:27:48.172Z,2.85
2019-02-25T16:30:14.454Z,2.67
2019-02-25T16:32:42.113Z,2.65
2019-02-25T16:35:13.498Z,2.92
2019-02-25T16:37:48.488Z,2.60
2019-02-25T16:40:28.311Z,2.60
2019-02-25T16:42:54.907Z,2.77
2019-02-25T16:45:28.471Z,2.30
2019-02-25T16:47:54.059Z,2.70
2019-02-25T16:50:21.555Z,2.40
2019-02-25T16:52:49.360Z,2.33
2019-02-25T16:55:20.188Z,2.33
2019-02-25T16:57:47.787Z,2.02
2019-02-25T17:00:25.170Z,2.12
2019-02-25T17:02:52.286Z,2.50
2019-02-25T17:05:18.682Z,2.50
2019-02-25T17:07:45.141Z,2.12
2019-02-25T17:10:16.203Z,2.33
2019-02-25T17:12:43.842Z,2.37
2019-02-25T17:15:14.306Z,2.02
2019-02-25T17:17:41.148Z,2.20
2019-02-25T17:20:13.133Z,1.82
2019-02-25T17:22:39.454Z,1.95
2019-02-25T17:25:10.338Z,2.00
2019-02-25T17:27:36.861Z,2.40
2019-02-25T17:30:07.054Z,2.50
2019-02-25T17:32:33.369Z,2.52
2019-02-25T17:35:00.528Z,2.10
2019-02-25T17:37:29.224Z,2.40
2019-02-25T17:39:58.476Z,2.50
2019-02-25T17:42:24.259Z,2.52
2019-02-25T17:44:53.306Z,2.30
2019-02-25T17:47:24.477Z,2.20
2019-02-25T17:49:47.867Z,2.58
2019-02-25T17:52:16.142Z,2.22
2019-02-25T17:54:42.692Z,2.40
2019-02-25T17:57:11.806Z,2.47
2019-02-25T17:59:39.182Z,2.15
2019-02-25T18:02:06.669Z,2.80
2019-02-25T18:04:34.709Z,2.90
2019-02-25T18:07:01.341Z,2.47
2019-02-25T18:09:27.784Z,2.40
2019-02-25T18:11:54.075Z,2.20
2019-02-25T18:14:20.508Z,2.30
2019-02-25T18:16:48.827Z,2.80
2019-02-25T18:19:15.912Z,2.08
2019-02-25T18:21:43.798Z,2.58
2019-02-25T18:24:12.525Z,2.17
2019-02-25T18:26:38.444Z,2.50
2019-02-25T18:29:05.593Z,2.83
2019-02-25T18:31:32.997Z,2.70
2019-02-25T18:33:59.410Z,2.72
2019-02-25T18:36:33.808Z,2.70
2019-02-25T18:39:00.141Z,2.77
2019-02-25T18:41:27.885Z,2.40
2019-02-25T18:43:54.635Z,2.58
2019-02-25T18:46:22.893Z,2.60
2019-02-25T18:48:49.729Z,2.10
2019-02-25T18:51:17.470Z,2.47
2019-02-25T18:53:44.760Z,2.27
2019-02-25T18:56:11.906Z,2.75
2019-02-25T18:58:40.079Z,2.52
2019-02-25T19:01:09.734Z,2.02
2019-02-25T19:03:36.201Z,1.80
2019-02-25T19:06:02.504Z,2.08
2019-02-25T19:08:29.545Z,1.80
2019-02-25T19:10:57.288Z,2.10
2019-02-25T19:13:25.254Z,4.05
2019-02-25T19:15:53.101Z,4.58
2019-02-25T19:18:20.069Z,11.68
2019-02-25T19:20:48.104Z,5.60
2019-02-25T19:23:16.366Z,3.95
2019-02-25T19:25:42.810Z,4.00
2019-02-25T19:28:13.931Z,5.62
2019-02-25T19:30:37.833Z,4.20
2019-02-25T19:33:11.207Z,2.90
2019-02-25T19:35:37.597Z,2.50
2019-02-25T19:38:05.437Z,1.80
2019-02-25T19:40:31.914Z,1.57
2019-02-25T19:42:59.544Z,1.52
2019-02-25T19:45:26.613Z,1.22
2019-02-25T19:47:55.247Z,1.42
2019-02-25T19:50:21.750Z,1.30
2019-02-25T19:52:48.170Z,1.50
2019-02-25T19:55:20.242Z,1.20
2019-02-25T19:57:46.082Z,1.57
2019-02-25T20:00:24.937Z,1.25
2019-02-25T20:02:50.601Z,1.70
2019-02-25T20:05:19.198Z,1.10
2019-02-25T20:07:45.615Z,1.30
2019-02-25T20:10:13.683Z,0.98
2019-02-25T20:12:40.124Z,1.00
2019-02-25T20:15:13.654Z,0.95
2019-02-25T20:17:41.126Z,0.90
2019-02-25T20:20:10.983Z,1.05
2019-02-25T20:22:38.737Z,0.80
2019-02-25T20:25:10.770Z,0.80
2019-02-25T20:27:36.803Z,1.10
2019-02-25T20:30:07.197Z,1.00
2019-02-25T20:32:34.243Z,1.00
2019-02-25T20:35:02.637Z,0.90
2019-02-25T20:37:29.375Z,0.93
2019-02-25T20:39:56.670Z,1.02
2019-02-25T20:42:24.432Z,1.20
2019-02-25T20:44:52.889Z,0.85
2019-02-25T20:47:19.710Z,0.88
2019-02-25T20:49:49.271Z,1.30
2019-02-25T20:52:15.920Z,1.10
2019-02-25T20:54:43.731Z,1.00
2019-02-25T20:57:12.560Z,1.05
2019-02-25T20:59:39.233Z,1.12
2019-02-25T21:02:09.660Z,1.22
2019-02-25T21:04:36.470Z,1.15
2019-02-25T21:07:04.274Z,0.98
2019-02-25T21:09:31.576Z,0.90
2019-02-25T21:11:58.793Z,1.20
2019-02-25T21:14:25.298Z,0.90
2019-02-25T21:16:53.733Z,1.00
2019-02-25T21:19:20.123Z,1.37
2019-02-25T21:21:46.834Z,1.35
2019-02-25T21:24:13.673Z,1.30
2019-02-25T21:26:40.947Z,1.10
2019-02-25T21:29:09.697Z,1.20
2019-02-25T21:31:35.852Z,1.10
2019-02-25T21:34:02.348Z,1.00
2019-02-25T21:36:29.538Z,1.30
2019-02-25T21:38:57.093Z,1.40
2019-02-25T21:41:23.601Z,1.50
2019-02-25T21:43:51.633Z,1.50
2019-02-25T21:46:21.946Z,1.22
2019-02-25T21:48:48.538Z,1.15
2019-02-25T21:51:14.794Z,1.40
2019-02-25T21:53:41.396Z,1.45
2019-02-25T21:56:07.723Z,1.17
2019-02-25T21:58:34.051Z,1.30
2019-02-25T22:01:00.358Z,1.27
2019-02-25T22:03:26.865Z,1.25
2019-02-25T22:05:54.063Z,1.05
2019-02-25T22:08:24.102Z,1.05
2019-02-25T22:10:49.799Z,1.32
2019-02-25T22:13:18.293Z,1.37
2019-02-25T22:15:45.290Z,1.35
2019-02-25T22:18:14.019Z,1.35
2019-02-25T22:20:42.112Z,1.40
2019-02-25T22:23:08.263Z,1.40
2019-02-25T22:25:34.566Z,1.17
2019-02-25T22:28:01.685Z,1.27
2019-02-25T22:30:29.273Z,1.67
2019-02-25T22:32:55.598Z,1.30
2019-02-25T22:35:22.002Z,1.40
2019-02-25T22:37:52.098Z,1.35
2019-02-25T22:40:17.442Z,1.70
2019-02-25T22:42:43.926Z,1.40
2019-02-25T22:45:20.678Z,1.65
2019-02-25T22:47:46.976Z,1.30
2019-02-25T22:50:15.116Z,1.40
2019-02-25T22:52:41.609Z,1.32
2019-02-25T22:55:10.120Z,1.37
2019-02-25T22:57:37.415Z,1.30
2019-02-25T23:00:28.641Z,1.45
2019-02-25T23:02:56.699Z,1.37
2019-02-25T23:05:25.323Z,1.50
2019-02-25T23:07:52.316Z,1.60
2019-02-25T23:10:20.210Z,1.47
2019-02-25T23:12:48.014Z,1.40
2019-02-25T23:15:14.309Z,1.50
2019-02-25T23:17:42.357Z,1.50
2019-02-25T23:20:09.870Z,1.62
2019-02-25T23:22:36.638Z,1.30
2019-02-25T23:25:07.595Z,1.40
2019-02-25T23:27:34.451Z,1.32
2019-02-25T23:30:10.438Z,1.55
2019-02-25T23:32:38.772Z,1.45
2019-02-25T23:35:09.416Z,1.50
2019-02-25T23:37:36.473Z,1.60
2019-02-25T23:40:10.262Z,1.40
2019-02-25T23:42:39.660Z,1.47
2019-02-25T23:45:12.794Z,1.50
2019-02-25T23:47:39.963Z,1.57
2019-02-25T23:50:13.543Z,1.62
2019-02-25T23:52:39.322Z,1.77
2019-02-25T23:55:12.171Z,1.60
2019-02-25T23:57:36.914Z,1.70
